createdAt,value
2019-01-21T00:02:08.461Z,-4.70
2019-01-21T00:06:13.437Z,-4.90
2019-01-21T00:10:18.342Z,-4.90
2019-01-21T00:14:23.264Z,-4.80
2019-01-21T00:18:28.189Z,-4.80
2019-01-21T00:22:33.176Z,-4.90
2019-01-21T00:26:38.086Z,-4.90
2019-01-21T00:30:43.007Z,-5.00
2019-01-21T00:34:48.043Z,-5.10
2019-01-21T00:38:52.940Z,-5.10
2019-01-21T00:42:57.849Z,-5.10
2019-01-21T00:47:02.738Z,-5.20
2019-01-21T00:51:07.654Z,-5.20
2019-01-21T00:55:12.642Z,-5.20
2019-01-21T00:59:17.663Z,-5.30
2019-01-21T01:03:22.580Z,-5.40
2019-01-21T01:07:27.502Z,-5.30
2019-01-21T01:11:32.519Z,-5.30
2019-01-21T01:15:37.456Z,-5.40
2019-01-21T01:19:42.351Z,-5.50
2019-01-21T01:23:47.239Z,-5.60
2019-01-21T01:27:52.588Z,-5.60
2019-01-21T01:31:57.496Z,-5.60
2019-01-21T01:36:02.471Z,-5.50
2019-01-21T01:40:11.353Z,-5.50
2019-01-21T01:44:16.274Z,-5.60
2019-01-21T01:48:21.450Z,-5.50
2019-01-21T01:52:26.367Z,-5.60
2019-01-21T01:56:31.340Z,-5.60
2019-01-21T02:00:36.795Z,-5.60
2019-01-21T02:04:41.690Z,-5.60
2019-01-21T02:08:46.999Z,-5.70
2019-01-21T02:12:51.892Z,-5.70
2019-01-21T02:16:56.813Z,-5.70
2019-01-21T02:21:02.823Z,-5.80
2019-01-21T02:25:08.428Z,-5.80
2019-01-21T02:29:54.167Z,-5.80
2019-01-21T02:35:08.761Z,-5.80
2019-01-21T02:39:33.141Z,-5.80
2019-01-21T02:44:44.475Z,-5.90
2019-01-21T02:49:06.720Z,-5.90
2019-01-21T02:54:14.445Z,-6.00
2019-01-21T02:58:46.694Z,-6.10
2019-01-21T03:03:37.424Z,-6.20
2019-01-21T03:08:30.914Z,-6.10
2019-01-21T03:13:19.455Z,-6.20
2019-01-21T03:18:07.999Z,-6.10
2019-01-21T03:22:50.133Z,-6.20
2019-01-21T03:27:58.376Z,-6.30
2019-01-21T03:32:51.738Z,-6.30
2019-01-21T03:38:03.644Z,-6.30
2019-01-21T03:42:41.830Z,-6.40
2019-01-21T03:47:29.684Z,-6.40
2019-01-21T03:52:17.264Z,-6.30
2019-01-21T03:57:03.951Z,-6.40
2019-01-21T04:02:36.579Z,-6.30
2019-01-21T04:07:24.817Z,-6.50
2019-01-21T04:12:30.636Z,-6.50
2019-01-21T04:17:17.580Z,-6.60
2019-01-21T04:22:01.150Z,-6.50
2019-01-21T04:26:42.879Z,-6.40
2019-01-21T04:31:44.925Z,-6.40
2019-01-21T04:36:32.599Z,-6.50
2019-01-21T04:40:57.427Z,-6.50
2019-01-21T04:45:56.708Z,-6.60
2019-01-21T04:50:56.775Z,-6.50
2019-01-21T04:56:00.304Z,-6.60
2019-01-21T05:00:42.194Z,-6.70
2019-01-21T05:05:26.154Z,-6.70
2019-01-21T05:10:34.696Z,-6.60
2019-01-21T05:15:41.549Z,-6.60
2019-01-21T05:21:04.900Z,-6.60
2019-01-21T05:26:12.993Z,-6.60
2019-01-21T05:30:59.591Z,-6.70
2019-01-21T05:36:04.886Z,-6.70
2019-01-21T05:40:57.871Z,-6.60
2019-01-21T05:45:44.007Z,-6.60
2019-01-21T05:50:18.141Z,-6.60
2019-01-21T05:55:07.503Z,-6.80
2019-01-21T05:59:48.795Z,-6.80
2019-01-21T06:04:41.285Z,-6.80
2019-01-21T06:09:32.138Z,-6.70
2019-01-21T06:14:21.366Z,-6.70
2019-01-21T06:19:29.455Z,-6.70
2019-01-21T06:24:00.008Z,-6.50
2019-01-21T06:29:11.855Z,-6.60
2019-01-21T06:33:56.413Z,-6.70
2019-01-21T06:39:10.413Z,-6.80
2019-01-21T06:44:10.314Z,-6.50
2019-01-21T06:48:54.584Z,-6.60
2019-01-21T06:53:34.494Z,-6.60
2019-01-21T06:58:13.051Z,-6.60
2019-01-21T07:03:25.061Z,-6.60
2019-01-21T07:08:17.949Z,-6.60
2019-01-21T07:13:15.263Z,-6.70
2019-01-21T07:18:12.421Z,-6.60
2019-01-21T07:23:09.145Z,-6.60
2019-01-21T07:27:57.635Z,-6.50
2019-01-21T07:32:22.633Z,-6.50
2019-01-21T07:37:31.302Z,-6.50
2019-01-21T07:42:26.257Z,-6.50
2019-01-21T07:47:26.488Z,-6.50
2019-01-21T07:52:27.672Z,-6.40
2019-01-21T07:57:23.184Z,-6.40
2019-01-21T08:02:06.041Z,-6.40
2019-01-21T08:06:48.960Z,-6.10
2019-01-21T08:11:44.482Z,-6.10
2019-01-21T08:16:38.954Z,-6.10
2019-01-21T08:21:34.272Z,-5.90
2019-01-21T08:26:16.023Z,-5.80
2019-01-21T08:31:29.472Z,-5.50
2019-01-21T08:36:39.341Z,-5.40
2019-01-21T08:41:45.542Z,-5.00
2019-01-21T08:46:27.112Z,-4.70
2019-01-21T08:51:13.200Z,-4.70
2019-01-21T08:56:02.625Z,-4.70
2019-01-21T09:00:19.880Z,-4.60
2019-01-21T09:05:29.395Z,-4.60
2019-01-21T09:10:06.049Z,-4.40
2019-01-21T09:14:40.993Z,-4.20
2019-01-21T09:19:21.752Z,-4.10
2019-01-21T09:24:08.083Z,-4.00
2019-01-21T09:29:07.322Z,-3.80
2019-01-21T09:34:11.637Z,-3.70
2019-01-21T09:39:14.948Z,-3.70
2019-01-21T09:43:59.014Z,-3.50
2019-01-21T09:48:02.070Z,-3.20
2019-01-21T09:52:19.201Z,-3.20
2019-01-21T09:56:24.955Z,-3.10
2019-01-21T10:00:29.860Z,-3.00
2019-01-21T10:05:07.272Z,-3.00
2019-01-21T10:09:48.419Z,-2.90
2019-01-21T10:14:59.125Z,-2.80
2019-01-21T10:20:19.629Z,-2.60
2019-01-21T10:24:53.724Z,-2.50
2019-01-21T10:30:06.224Z,-2.40
2019-01-21T10:35:10.555Z,-2.30
2019-01-21T10:40:07.922Z,-2.20
2019-01-21T10:44:59.008Z,-2.00
2019-01-21T10:49:43.693Z,-1.80
2019-01-21T10:54:36.787Z,-1.70
2019-01-21T10:59:32.807Z,-1.70
2019-01-21T11:04:26.466Z,-1.60
2019-01-21T11:09:35.847Z,-1.50
2019-01-21T11:14:47.651Z,-1.20
2019-01-21T11:19:54.072Z,-1.20
2019-01-21T11:25:42.129Z,-1.20
2019-01-21T11:30:21.510Z,-0.90
2019-01-21T11:35:19.630Z,-0.80
2019-01-21T11:40:32.365Z,-0.60
2019-01-21T11:45:41.451Z,-0.40
2019-01-21T11:50:43.788Z,-0.30
2019-01-21T11:55:40.019Z,-0.30
2019-01-21T12:00:42.658Z,-0.20
2019-01-21T12:05:30.758Z,0.10
2019-01-21T12:10:40.571Z,0.30
2019-01-21T12:15:26.032Z,0.30
2019-01-21T12:20:03.145Z,0.30
2019-01-21T12:24:45.871Z,0.20
2019-01-21T12:29:45.932Z,0.70
2019-01-21T12:34:46.544Z,0.70
2019-01-21T12:39:09.694Z,1.10
2019-01-21T12:43:42.301Z,1.60
2019-01-21T12:48:29.438Z,2.10
2019-01-21T12:52:53.198Z,2.50
2019-01-21T12:58:19.675Z,3.10
2019-01-21T13:03:34.609Z,3.80
2019-01-21T13:08:58.314Z,3.60
2019-01-21T13:13:58.556Z,4.90
2019-01-21T13:18:54.741Z,4.80
2019-01-21T13:23:51.338Z,5.00
2019-01-21T13:28:45.780Z,5.00
2019-01-21T13:33:34.428Z,4.30
2019-01-21T13:38:29.650Z,4.00
2019-01-21T13:43:17.997Z,3.10
2019-01-21T13:48:19.054Z,3.10
2019-01-21T13:52:59.862Z,2.30
2019-01-21T13:58:14.531Z,2.20
2019-01-21T14:02:43.413Z,1.80
2019-01-21T14:07:36.823Z,1.70
2019-01-21T14:12:31.916Z,1.70
2019-01-21T14:17:40.908Z,1.60
2019-01-21T14:22:44.950Z,1.60
2019-01-21T14:28:01.535Z,1.70
2019-01-21T14:32:36.276Z,1.80
2019-01-21T14:37:47.299Z,1.50
2019-01-21T14:42:48.493Z,1.40
2019-01-21T14:47:51.103Z,1.20
2019-01-21T14:53:08.848Z,1.20
2019-01-21T14:58:05.098Z,1.10
2019-01-21T15:03:00.668Z,1.30
2019-01-21T15:07:32.612Z,1.30
2019-01-21T15:12:46.254Z,1.20
2019-01-21T15:17:49.552Z,1.00
2019-01-21T15:22:38.426Z,0.90
2019-01-21T15:27:22.263Z,0.80
2019-01-21T15:32:12.655Z,0.60
2019-01-21T15:37:08.951Z,0.40
2019-01-21T15:41:59.379Z,0.20
2019-01-21T15:47:05.615Z,0.10
2019-01-21T15:51:57.591Z,0.00
2019-01-21T15:56:51.238Z,-0.10
2019-01-21T16:02:01.452Z,-0.30
2019-01-21T16:07:06.187Z,-0.40
2019-01-21T16:11:48.562Z,-0.60
2019-01-21T16:17:08.257Z,-0.90
2019-01-21T16:22:05.516Z,-1.00
2019-01-21T16:26:27.569Z,-1.20
2019-01-21T16:30:57.315Z,-1.30
2019-01-21T16:35:31.528Z,-1.40
2019-01-21T16:40:26.627Z,-1.40
2019-01-21T16:44:31.628Z,-1.50
2019-01-21T16:48:36.934Z,-1.60
2019-01-21T16:52:41.956Z,-1.70
2019-01-21T16:56:46.959Z,-1.70
2019-01-21T17:00:51.947Z,-1.80
2019-01-21T17:04:56.824Z,-1.90
2019-01-21T17:09:01.745Z,-1.90
2019-01-21T17:13:06.731Z,-2.00
2019-01-21T17:21:16.892Z,-2.10
2019-01-21T17:25:21.844Z,-2.20
2019-01-21T17:29:26.752Z,-2.20
2019-01-21T17:33:32.312Z,-2.20
2019-01-21T17:37:37.498Z,-2.20
2019-01-21T17:41:42.478Z,-2.20
2019-01-21T17:45:47.390Z,-2.30
2019-01-21T17:49:52.335Z,-2.40
2019-01-21T17:53:57.241Z,-2.40
2019-01-21T17:58:02.221Z,-2.40
2019-01-21T18:02:07.535Z,-2.50
2019-01-21T18:06:12.448Z,-2.40
2019-01-21T18:10:20.447Z,-2.50
2019-01-21T18:14:25.455Z,-2.50
2019-01-21T18:18:30.373Z,-2.60
2019-01-21T18:22:35.401Z,-2.70
2019-01-21T18:26:40.426Z,-2.70
2019-01-21T18:30:45.316Z,-2.70
2019-01-21T18:34:50.684Z,-2.70
2019-01-21T18:38:55.594Z,-2.80
2019-01-21T18:43:00.628Z,-2.90
2019-01-21T18:47:05.890Z,-2.90
2019-01-21T18:51:10.892Z,-2.90
2019-01-21T18:55:15.777Z,-2.90
2019-01-21T18:59:20.793Z,-2.90
2019-01-21T19:03:26.169Z,-2.90
2019-01-21T19:07:31.218Z,-2.90
2019-01-21T19:11:36.549Z,-3.00
2019-01-21T19:15:41.429Z,-3.00
2019-01-21T19:19:46.342Z,-3.10
2019-01-21T19:23:51.681Z,-3.20
2019-01-21T19:27:56.732Z,-3.20
2019-01-21T19:32:01.723Z,-3.20
2019-01-21T19:36:06.735Z,-3.20
2019-01-21T19:40:16.332Z,-3.20
2019-01-21T19:44:21.635Z,-3.30
2019-01-21T19:48:26.531Z,-3.30
2019-01-21T19:52:31.462Z,-3.40
2019-01-21T19:56:36.449Z,-3.50
2019-01-21T20:00:41.460Z,-3.40
2019-01-21T20:04:46.374Z,-3.40
2019-01-21T20:08:51.281Z,-3.60
2019-01-21T20:12:56.239Z,-3.60
2019-01-21T20:17:01.392Z,-3.60
2019-01-21T20:21:06.436Z,-3.70
2019-01-21T20:25:11.673Z,-3.80
2019-01-21T20:29:16.667Z,-3.70
2019-01-21T20:33:21.620Z,-3.80
2019-01-21T20:37:31.144Z,-3.80
2019-01-21T20:41:36.082Z,-3.80
2019-01-21T20:45:41.685Z,-3.80
2019-01-21T20:49:46.567Z,-3.90
2019-01-21T20:53:52.173Z,-3.90
2019-01-21T20:57:57.543Z,-3.90
2019-01-21T21:02:02.702Z,-4.00
2019-01-21T21:06:07.946Z,-4.00
2019-01-21T21:10:13.259Z,-4.10
2019-01-21T21:14:18.599Z,-4.20
2019-01-21T21:18:23.554Z,-4.30
2019-01-21T21:22:28.601Z,-4.30
2019-01-21T21:26:33.539Z,-4.30
2019-01-21T21:30:38.547Z,-4.30
2019-01-21T21:34:43.936Z,-4.40
2019-01-21T21:38:48.865Z,-4.50
2019-01-21T21:42:53.820Z,-4.50
2019-01-21T21:46:58.783Z,-4.50
2019-01-21T21:51:03.730Z,-4.60
2019-01-21T21:55:10.249Z,-4.50
2019-01-21T21:59:15.455Z,-4.60
2019-01-21T22:03:20.409Z,-4.60
2019-01-21T22:07:25.432Z,-4.60
2019-01-21T22:11:30.365Z,-4.70
2019-01-21T22:15:35.681Z,-4.60
2019-01-21T22:19:40.708Z,-4.60
2019-01-21T22:23:45.630Z,-4.60
2019-01-21T22:27:50.571Z,-4.70
2019-01-21T22:31:55.515Z,-4.70
2019-01-21T22:36:00.846Z,-4.70
2019-01-21T22:40:08.723Z,-4.50
2019-01-21T22:44:14.207Z,-4.50
2019-01-21T22:48:19.124Z,-4.50
2019-01-21T22:52:24.332Z,-4.50
2019-01-21T22:56:29.284Z,-4.50
2019-01-21T23:01:11.807Z,-4.50
2019-01-21T23:05:16.856Z,-4.50
2019-01-21T23:09:22.071Z,-4.40
2019-01-21T23:13:26.964Z,-4.30
2019-01-21T23:17:31.895Z,-4.30
2019-01-21T23:21:36.854Z,-4.50
2019-01-21T23:25:41.779Z,-4.40
2019-01-21T23:29:46.684Z,-4.40
2019-01-21T23:33:51.924Z,-4.40
2019-01-21T23:37:56.855Z,-4.20
2019-01-21T23:42:01.858Z,-4.30
2019-01-21T23:46:06.770Z,-4.30
2019-01-21T23:50:11.689Z,-4.20
2019-01-21T23:54:17.051Z,-4.10
2019-01-21T23:58:21.961Z,-4.10
